sensor_id;sensor_type;location;lat;lon;timestamp;pressure;altitude;pressure_sealevel;temperature;humidity
9740;BME280;4909;42.680;26.324;2023-02-14T00:01:35;99948.63;;;3.28;77.15
9740;BME280;4909;42.680;26.324;2023-02-14T00:04:02;99953.81;;;3.21;77.36
9740;BME280;4909;42.680;26.324;2023-02-14T00:06:30;99947.72;;;3.25;77.59
9740;BME280;4909;42.680;26.324;2023-02-14T00:08:59;99954.69;;;3.20;78.19
9740;BME280;4909;42.680;26.324;2023-02-14T00:11:26;99957.44;;;3.41;78.21
9740;BME280;4909;42.680;26.324;2023-02-14T00:13:54;99950.53;;;3.58;76.98
9740;BME280;4909;42.680;26.324;2023-02-14T00:16:39;99942.75;;;3.84;75.86
9740;BME280;4909;42.680;26.324;2023-02-14T00:19:06;99952.34;;;3.79;75.56
9740;BME280;4909;42.680;26.324;2023-02-14T00:21:35;99897.16;;;3.68;74.87
9740;BME280;4909;42.680;26.324;2023-02-14T00:24:02;99932.31;;;4.05;74.21
9740;BME280;4909;42.680;26.324;2023-02-14T00:26:29;99940.16;;;3.98;73.33
9740;BME280;4909;42.680;26.324;2023-02-14T00:28:56;99932.25;;;3.87;74.18
9740;BME280;4909;42.680;26.324;2023-02-14T00:31:23;99934.81;;;3.69;74.46
9740;BME280;4909;42.680;26.324;2023-02-14T00:33:51;99940.09;;;3.79;73.92
9740;BME280;4909;42.680;26.324;2023-02-14T00:36:18;99925.22;;;3.78;72.93
9740;BME280;4909;42.680;26.324;2023-02-14T00:38:46;99932.28;;;3.96;72.27
9740;BME280;4909;42.680;26.324;2023-02-14T00:41:12;99930.59;;;4.16;71.95
9740;BME280;4909;42.680;26.324;2023-02-14T00:43:44;99920.06;;;4.18;70.64
9740;BME280;4909;42.680;26.324;2023-02-14T00:46:11;99934.03;;;4.08;67.00
9740;BME280;4909;42.680;26.324;2023-02-14T00:48:38;99944.56;;;4.17;68.44
9740;BME280;4909;42.680;26.324;2023-02-14T00:51:07;99922.69;;;4.19;68.55
9740;BME280;4909;42.680;26.324;2023-02-14T00:53:34;99953.19;;;3.63;73.07
9740;BME280;4909;42.680;26.324;2023-02-14T00:56:02;99947.72;;;3.23;75.80
9740;BME280;4909;42.680;26.324;2023-02-14T00:58:30;99959.88;;;3.11;76.88
9740;BME280;4909;42.680;26.324;2023-02-14T01:00:59;99950.31;;;3.19;77.22
9740;BME280;4909;42.680;26.324;2023-02-14T01:03:26;99923.06;;;2.94;77.55
9740;BME280;4909;42.680;26.324;2023-02-14T01:05:53;99945.03;;;3.10;77.63
9740;BME280;4909;42.680;26.324;2023-02-14T01:08:21;99932.66;;;2.89;78.79
9740;BME280;4909;42.680;26.324;2023-02-14T01:10:48;99939.69;;;2.97;79.83
9740;BME280;4909;42.680;26.324;2023-02-14T01:13:15;99940.69;;;3.16;78.14
9740;BME280;4909;42.680;26.324;2023-02-14T01:15:44;99940.56;;;2.96;77.72
9740;BME280;4909;42.680;26.324;2023-02-14T01:18:12;99930.91;;;2.95;78.20
9740;BME280;4909;42.680;26.324;2023-02-14T01:20:39;99902.06;;;2.92;78.11
9740;BME280;4909;42.680;26.324;2023-02-14T01:23:06;99917.81;;;2.95;78.61
9740;BME280;4909;42.680;26.324;2023-02-14T01:25:35;99907.38;;;3.06;78.21
9740;BME280;4909;42.680;26.324;2023-02-14T01:28:02;99870.63;;;2.97;77.22
9740;BME280;4909;42.680;26.324;2023-02-14T01:30:29;99908.41;;;3.31;76.67
9740;BME280;4909;42.680;26.324;2023-02-14T01:32:55;99899.66;;;3.35;75.97
9740;BME280;4909;42.680;26.324;2023-02-14T01:35:22;99895.94;;;2.90;78.13
9740;BME280;4909;42.680;26.324;2023-02-14T01:37:49;99896.75;;;2.83;78.42
9740;BME280;4909;42.680;26.324;2023-02-14T01:40:16;99851.81;;;2.30;79.58
9740;BME280;4909;42.680;26.324;2023-02-14T01:42:44;99876.31;;;2.32;81.95
9740;BME280;4909;42.680;26.324;2023-02-14T01:45:16;99877.09;;;2.24;82.93
9740;BME280;4909;42.680;26.324;2023-02-14T01:47:46;99873.88;;;2.58;82.26
9740;BME280;4909;42.680;26.324;2023-02-14T01:50:18;99873.13;;;2.74;80.15
9740;BME280;4909;42.680;26.324;2023-02-14T01:52:49;99859.06;;;2.63;79.06
9740;BME280;4909;42.680;26.324;2023-02-14T01:55:20;99867.72;;;2.54;79.63
9740;BME280;4909;42.680;26.324;2023-02-14T01:57:50;99875.50;;;2.44;80.08
9740;BME280;4909;42.680;26.324;2023-02-14T02:00:19;99845.06;;;2.62;77.37
9740;BME280;4909;42.680;26.324;2023-02-14T02:03:04;99853.88;;;2.77;77.80
9740;BME280;4909;42.680;26.324;2023-02-14T02:05:32;99848.66;;;2.78;77.60
9740;BME280;4909;42.680;26.324;2023-02-14T02:07:59;99843.44;;;2.80;77.62
9740;BME280;4909;42.680;26.324;2023-02-14T02:10:27;99838.22;;;2.84;77.12
9740;BME280;4909;42.680;26.324;2023-02-14T02:12:59;99843.34;;;2.65;78.79
9740;BME280;4909;42.680;26.324;2023-02-14T02:15:30;99858.25;;;2.70;78.78
9740;BME280;4909;42.680;26.324;2023-02-14T02:18:09;99856.59;;;2.87;78.04
9740;BME280;4909;42.680;26.324;2023-02-14T02:20:58;99852.28;;;2.98;77.11
9740;BME280;4909;42.680;26.324;2023-02-14T02:24:08;99841.91;;;3.24;75.90
9740;BME280;4909;42.680;26.324;2023-02-14T02:27:03;99848.97;;;3.42;73.29
9740;BME280;4909;42.680;26.324;2023-02-14T02:35:52;99821.91;;;3.58;71.51
9740;BME280;4909;42.680;26.324;2023-02-14T02:38:35;99840.28;;;3.69;71.51
9740;BME280;4909;42.680;26.324;2023-02-14T02:41:14;99828.06;;;3.89;70.31
9740;BME280;4909;42.680;26.324;2023-02-14T02:43:52;99830.69;;;3.87;70.09
9740;BME280;4909;42.680;26.324;2023-02-14T02:46:24;99834.09;;;3.44;71.84
9740;BME280;4909;42.680;26.324;2023-02-14T02:49:14;99835.84;;;3.49;72.86
9740;BME280;4909;42.680;26.324;2023-02-14T02:52:10;99822.81;;;3.72;71.96
9740;BME280;4909;42.680;26.324;2023-02-14T02:55:01;99833.31;;;3.81;71.55
9740;BME280;4909;42.680;26.324;2023-02-14T02:57:32;99815.78;;;3.68;71.25
9740;BME280;4909;42.680;26.324;2023-02-14T03:00:02;99835.72;;;3.12;74.01
9740;BME280;4909;42.680;26.324;2023-02-14T03:02:32;99830.53;;;3.22;74.57
9740;BME280;4909;42.680;26.324;2023-02-14T03:05:21;99827.06;;;3.32;73.83
9740;BME280;4909;42.680;26.324;2023-02-14T03:07:48;99832.34;;;3.41;73.92
9740;BME280;4909;42.680;26.324;2023-02-14T03:10:17;99806.97;;;3.42;74.14
9740;BME280;4909;42.680;26.324;2023-02-14T03:19:03;99807.91;;;3.67;73.39
9740;BME280;4909;42.680;26.324;2023-02-14T03:21:56;99814.03;;;3.67;72.31
9740;BME280;4909;42.680;26.324;2023-02-14T03:24:29;99804.44;;;3.80;71.68
9740;BME280;4909;42.680;26.324;2023-02-14T03:27:04;99817.56;;;3.93;71.37
9740;BME280;4909;42.680;26.324;2023-02-14T03:29:42;99804.44;;;4.00;70.51
9740;BME280;4909;42.680;26.324;2023-02-14T03:32:16;99807.94;;;4.00;70.41
9740;BME280;4909;42.680;26.324;2023-02-14T03:34:51;99794.81;;;4.18;69.67
9740;BME280;4909;42.680;26.324;2023-02-14T03:37:23;99793.91;;;4.31;69.38
9740;BME280;4909;42.680;26.324;2023-02-14T03:40:00;99793.94;;;4.18;70.26
9740;BME280;4909;42.680;26.324;2023-02-14T03:42:31;99791.28;;;4.22;70.09
9740;BME280;4909;42.680;26.324;2023-02-14T03:45:01;99782.53;;;4.31;69.51
9740;BME280;4909;42.680;26.324;2023-02-14T03:47:31;99765.00;;;4.42;69.22
9740;BME280;4909;42.680;26.324;2023-02-14T03:50:01;99744.84;;;4.49;68.68
9740;BME280;4909;42.680;26.324;2023-02-14T03:52:30;99766.59;;;4.92;67.72
9740;BME280;4909;42.680;26.324;2023-02-14T03:55:00;99760.38;;;5.11;66.46
9740;BME280;4909;42.680;26.324;2023-02-14T03:57:31;99756.88;;;5.09;66.00
9740;BME280;4909;42.680;26.324;2023-02-14T04:00:02;99749.06;;;4.89;66.63
9740;BME280;4909;42.680;26.324;2023-02-14T04:02:33;99724.53;;;4.86;66.69
9740;BME280;4909;42.680;26.324;2023-02-14T04:05:05;99754.22;;;5.15;66.03
9740;BME280;4909;42.680;26.324;2023-02-14T04:07:43;99748.00;;;5.31;65.35
9740;BME280;4909;42.680;26.324;2023-02-14T04:10:11;99734.88;;;5.23;65.38
9740;BME280;4909;42.680;26.324;2023-02-14T04:12:38;99744.41;;;5.43;64.68
9740;BME280;4909;42.680;26.324;2023-02-14T04:15:05;99745.34;;;5.34;64.72
9740;BME280;4909;42.680;26.324;2023-02-14T04:17:32;99743.59;;;5.35;65.36
9740;BME280;4909;42.680;26.324;2023-02-14T04:20:17;99745.41;;;5.25;65.25
9740;BME280;4909;42.680;26.324;2023-02-14T04:22:44;99747.06;;;5.41;64.96
9740;BME280;4909;42.680;26.324;2023-02-14T04:25:13;99750.47;;;5.52;64.54
9740;BME280;4909;42.680;26.324;2023-02-14T04:27:40;99744.38;;;5.49;64.39
9740;BME280;4909;42.680;26.324;2023-02-14T04:30:08;99741.78;;;5.44;64.72
9740;BME280;4909;42.680;26.324;2023-02-14T04:32:37;99746.97;;;5.52;64.28
9740;BME280;4909;42.680;26.324;2023-02-14T04:35:06;99723.38;;;5.40;63.86
9740;BME280;4909;42.680;26.324;2023-02-14T04:37:33;99731.19;;;5.50;64.19
9740;BME280;4909;42.680;26.324;2023-02-14T04:39:59;99736.63;;;5.23;65.00
9740;BME280;4909;42.680;26.324;2023-02-14T04:42:27;99741.06;;;5.15;65.00
9740;BME280;4909;42.680;26.324;2023-02-14T04:44:54;99738.50;;;5.03;65.83
9740;BME280;4909;42.680;26.324;2023-02-14T04:47:21;99709.59;;;4.89;66.22
9740;BME280;4909;42.680;26.324;2023-02-14T04:49:48;99685.16;;;4.73;66.32
9740;BME280;4909;42.680;26.324;2023-02-14T04:52:14;99720.94;;;5.08;66.28
9740;BME280;4909;42.680;26.324;2023-02-14T04:54:42;99739.22;;;5.32;64.87
9740;BME280;4909;42.680;26.324;2023-02-14T04:57:08;99707.81;;;5.02;63.17
9740;BME280;4909;42.680;26.324;2023-02-14T04:59:36;99728.91;;;4.91;62.71
9740;BME280;4909;42.680;26.324;2023-02-14T05:02:03;99740.38;;;4.70;63.53
9740;BME280;4909;42.680;26.324;2023-02-14T05:04:30;99742.19;;;4.46;64.57
9740;BME280;4909;42.680;26.324;2023-02-14T05:06:57;99733.50;;;4.18;67.10
9740;BME280;4909;42.680;26.324;2023-02-14T05:09:23;99747.53;;;4.05;67.92
9740;BME280;4909;42.680;26.324;2023-02-14T05:11:50;99741.38;;;3.98;68.47
9740;BME280;4909;42.680;26.324;2023-02-14T05:14:17;99736.16;;;3.92;70.46
9740;BME280;4909;42.680;26.324;2023-02-14T05:16:45;99739.63;;;4.12;71.46
9740;BME280;4909;42.680;26.324;2023-02-14T05:19:12;99729.09;;;4.32;71.44
9740;BME280;4909;42.680;26.324;2023-02-14T05:21:39;99722.03;;;4.46;70.83
9740;BME280;4909;42.680;26.324;2023-02-14T05:24:06;99717.59;;;4.68;69.91
9740;BME280;4909;42.680;26.324;2023-02-14T05:26:33;99720.19;;;4.75;69.47
9740;BME280;4909;42.680;26.324;2023-02-14T05:28:59;99717.50;;;4.85;69.29
9740;BME280;4909;42.680;26.324;2023-02-14T05:31:26;99727.13;;;4.96;69.21
9740;BME280;4909;42.680;26.324;2023-02-14T05:33:54;99726.25;;;4.97;68.62
9740;BME280;4909;42.680;26.324;2023-02-14T05:36:21;99727.03;;;5.08;68.57
9740;BME280;4909;42.680;26.324;2023-02-14T05:38:48;99727.00;;;5.20;67.93
9740;BME280;4909;42.680;26.324;2023-02-14T05:41:15;99726.94;;;5.28;67.52
9740;BME280;4909;42.680;26.324;2023-02-14T05:43:42;99740.06;;;5.37;66.99
9740;BME280;4909;42.680;26.324;2023-02-14T05:46:08;99744.38;;;5.49;66.41
9740;BME280;4909;42.680;26.324;2023-02-14T05:48:35;99741.72;;;5.56;66.23
9740;BME280;4909;42.680;26.324;2023-02-14T05:51:04;99722.41;;;5.53;66.02
9740;BME280;4909;42.680;26.324;2023-02-14T05:53:32;99723.28;;;5.56;65.70
9740;BME280;4909;42.680;26.324;2023-02-14T05:55:59;99720.53;;;5.68;65.70
9740;BME280;4909;42.680;26.324;2023-02-14T05:58:26;99726.63;;;5.74;64.82
9740;BME280;4909;42.680;26.324;2023-02-14T06:00:55;99732.78;;;5.73;64.91
9740;BME280;4909;42.680;26.324;2023-02-14T06:03:21;99738.25;;;6.52;62.75
9740;BME280;4909;42.680;26.324;2023-02-14T06:05:48;99720.56;;;7.85;56.54
9740;BME280;4909;42.680;26.324;2023-02-14T06:08:16;99736.66;;;9.56;50.50
9740;BME280;4909;42.680;26.324;2023-02-14T06:10:43;99739.22;;;10.33;47.98
9740;BME280;4909;42.680;26.324;2023-02-14T06:13:10;99749.56;;;10.76;45.16
9740;BME280;4909;42.680;26.324;2023-02-14T06:15:37;99740.50;;;11.72;42.93
9740;BME280;4909;42.680;26.324;2023-02-14T06:18:04;99739.25;;;12.10;41.63
9740;BME280;4909;42.680;26.324;2023-02-14T06:20:31;99730.97;;;12.46;39.97
9740;BME280;4909;42.680;26.324;2023-02-14T06:22:58;99731.31;;;12.35;39.87
9740;BME280;4909;42.680;26.324;2023-02-14T06:25:26;99734.06;;;11.81;41.49
9740;BME280;4909;42.680;26.324;2023-02-14T06:27:55;99736.91;;;11.75;40.79
9740;BME280;4909;42.680;26.324;2023-02-14T06:30:23;99730.38;;;11.85;41.14
9740;BME280;4909;42.680;26.324;2023-02-14T06:32:49;99724.06;;;12.65;39.85
9740;BME280;4909;42.680;26.324;2023-02-14T06:35:16;99724.19;;;13.10;38.07
9740;BME280;4909;42.680;26.324;2023-02-14T06:37:43;99729.03;;;12.99;38.10
9740;BME280;4909;42.680;26.324;2023-02-14T06:40:12;99729.94;;;13.46;36.93
9740;BME280;4909;42.680;26.324;2023-02-14T06:42:40;99715.34;;;13.33;37.89
9740;BME280;4909;42.680;26.324;2023-02-14T06:45:08;99718.56;;;13.64;36.26
9740;BME280;4909;42.680;26.324;2023-02-14T06:47:35;99683.50;;;13.73;35.98
9740;BME280;4909;42.680;26.324;2023-02-14T06:50:02;99712.25;;;13.88;36.13
9740;BME280;4909;42.680;26.324;2023-02-14T06:52:29;99716.22;;;13.33;36.86
9740;BME280;4909;42.680;26.324;2023-02-14T06:54:56;99713.78;;;13.27;37.29
9740;BME280;4909;42.680;26.324;2023-02-14T06:57:23;99714.94;;;14.09;35.41
9740;BME280;4909;42.680;26.324;2023-02-14T06:59:51;99707.25;;;14.01;35.39
9740;BME280;4909;42.680;26.324;2023-02-14T07:02:18;99701.41;;;15.14;34.09
9740;BME280;4909;42.680;26.324;2023-02-14T07:04:45;99695.31;;;16.39;31.70
9740;BME280;4909;42.680;26.324;2023-02-14T07:07:12;99695.84;;;16.97;30.26
9740;BME280;4909;42.680;26.324;2023-02-14T07:09:39;99696.56;;;16.49;30.31
9740;BME280;4909;42.680;26.324;2023-02-14T07:12:06;99694.34;;;16.23;30.98
9740;BME280;4909;42.680;26.324;2023-02-14T07:14:32;99699.72;;;16.91;29.84
9740;BME280;4909;42.680;26.324;2023-02-14T07:17:00;99697.47;;;16.67;30.16
9740;BME280;4909;42.680;26.324;2023-02-14T07:19:27;99696.53;;;15.61;31.24
9740;BME280;4909;42.680;26.324;2023-02-14T07:21:54;99701.63;;;16.38;30.91
9740;BME280;4909;42.680;26.324;2023-02-14T07:24:21;99706.09;;;17.70;29.58
9740;BME280;4909;42.680;26.324;2023-02-14T07:26:48;99697.44;;;18.86;27.72
9740;BME280;4909;42.680;26.324;2023-02-14T07:29:14;99711.22;;;18.20;27.98
9740;BME280;4909;42.680;26.324;2023-02-14T07:31:41;99720.03;;;17.93;28.13
9740;BME280;4909;42.680;26.324;2023-02-14T07:34:09;99716.53;;;18.22;27.60
9740;BME280;4909;42.680;26.324;2023-02-14T07:36:36;99727.88;;;16.83;29.52
9740;BME280;4909;42.680;26.324;2023-02-14T07:39:03;99730.03;;;16.23;30.66
9740;BME280;4909;42.680;26.324;2023-02-14T07:41:30;99711.34;;;16.04;30.71
9740;BME280;4909;42.680;26.324;2023-02-14T07:43:56;99715.59;;;17.12;29.65
9740;BME280;4909;42.680;26.324;2023-02-14T07:46:23;99720.09;;;18.22;28.36
9740;BME280;4909;42.680;26.324;2023-02-14T07:48:50;99714.31;;;17.83;28.64
9740;BME280;4909;42.680;26.324;2023-02-14T07:51:18;99710.50;;;18.78;27.23
9740;BME280;4909;42.680;26.324;2023-02-14T07:53:45;99687.25;;;18.77;27.41
9740;BME280;4909;42.680;26.324;2023-02-14T07:56:12;99698.25;;;18.58;27.61
9740;BME280;4909;42.680;26.324;2023-02-14T07:58:39;99687.47;;;19.86;25.62
9740;BME280;4909;42.680;26.324;2023-02-14T08:01:06;99694.59;;;18.30;27.17
9740;BME280;4909;42.680;26.324;2023-02-14T08:03:33;99694.31;;;17.73;28.08
9740;BME280;4909;42.680;26.324;2023-02-14T08:05:59;99704.97;;;17.90;27.77
9740;BME280;4909;42.680;26.324;2023-02-14T08:08:29;99711.38;;;17.72;27.90
9740;BME280;4909;42.680;26.324;2023-02-14T08:10:57;99717.25;;;17.78;27.84
9740;BME280;4909;42.680;26.324;2023-02-14T08:13:24;99709.09;;;18.41;27.11
9740;BME280;4909;42.680;26.324;2023-02-14T08:15:51;99712.47;;;17.52;27.93
9740;BME280;4909;42.680;26.324;2023-02-14T08:18:31;99688.34;;;17.84;27.05
9740;BME280;4909;42.680;26.324;2023-02-14T08:20:58;99704.84;;;17.45;28.43
9740;BME280;4909;42.680;26.324;2023-02-14T08:23:25;99709.75;;;17.85;27.80
9740;BME280;4909;42.680;26.324;2023-02-14T08:25:53;99707.66;;;18.36;27.15
9740;BME280;4909;42.680;26.324;2023-02-14T08:28:20;99712.84;;;18.39;27.06
9740;BME280;4909;42.680;26.324;2023-02-14T08:30:47;99705.44;;;19.30;26.14
9740;BME280;4909;42.680;26.324;2023-02-14T08:33:14;99707.75;;;19.36;26.11
9740;BME280;4909;42.680;26.324;2023-02-14T08:35:41;99715.47;;;18.84;26.36
9740;BME280;4909;42.680;26.324;2023-02-14T08:38:08;99707.41;;;17.79;27.25
9740;BME280;4909;42.680;26.324;2023-02-14T08:40:34;99705.78;;;17.44;28.26
9740;BME280;4909;42.680;26.324;2023-02-14T08:43:03;99711.97;;;17.77;27.65
9740;BME280;4909;42.680;26.324;2023-02-14T08:45:30;99705.78;;;18.06;27.30
9740;BME280;4909;42.680;26.324;2023-02-14T08:48:00;99711.09;;;17.92;27.46
9740;BME280;4909;42.680;26.324;2023-02-14T08:50:27;99708.53;;;18.66;26.64
9740;BME280;4909;42.680;26.324;2023-02-14T08:52:54;99713.91;;;18.36;26.87
9740;BME280;4909;42.680;26.324;2023-02-14T08:55:21;99713.53;;;18.58;26.95
9740;BME280;4909;42.680;26.324;2023-02-14T08:57:47;99705.81;;;19.38;25.95
9740;BME280;4909;42.680;26.324;2023-02-14T09:00:16;99715.34;;;19.30;25.97
9740;BME280;4909;42.680;26.324;2023-02-14T09:02:43;99713.03;;;20.34;24.85
9740;BME280;4909;42.680;26.324;2023-02-14T09:05:10;99721.91;;;18.52;26.43
9740;BME280;4909;42.680;26.324;2023-02-14T09:07:37;99686.53;;;18.59;26.37
9740;BME280;4909;42.680;26.324;2023-02-14T09:10:05;99695.78;;;18.84;26.44
9740;BME280;4909;42.680;26.324;2023-02-14T09:12:32;99706.75;;;19.37;25.62
9740;BME280;4909;42.680;26.324;2023-02-14T09:14:59;99695.38;;;19.89;25.38
9740;BME280;4909;42.680;26.324;2023-02-14T09:17:27;99705.31;;;19.32;25.58
9740;BME280;4909;42.680;26.324;2023-02-14T09:19:55;99695.09;;;17.91;27.03
9740;BME280;4909;42.680;26.324;2023-02-14T09:22:21;99690.16;;;18.29;26.78
9740;BME280;4909;42.680;26.324;2023-02-14T09:24:48;99689.84;;;19.90;25.45
9740;BME280;4909;42.680;26.324;2023-02-14T09:27:15;99695.25;;;19.35;25.49
9740;BME280;4909;42.680;26.324;2023-02-14T09:29:42;99684.47;;;18.19;26.46
9740;BME280;4909;42.680;26.324;2023-02-14T09:32:09;99678.56;;;18.58;26.84
9740;BME280;4909;42.680;26.324;2023-02-14T09:34:37;99666.00;;;18.73;26.00
9740;BME280;4909;42.680;26.324;2023-02-14T09:37:04;99686.59;;;17.98;26.85
9740;BME280;4909;42.680;26.324;2023-02-14T09:39:48;99686.22;;;16.60;28.09
9740;BME280;4909;42.680;26.324;2023-02-14T09:42:38;99651.50;;;15.70;29.70
9740;BME280;4909;42.680;26.324;2023-02-14T09:45:10;99658.75;;;16.38;29.36
9740;BME280;4909;42.680;26.324;2023-02-14T09:47:42;99675.66;;;15.31;30.31
9740;BME280;4909;42.680;26.324;2023-02-14T09:50:19;99664.53;;;15.21;31.23
9740;BME280;4909;42.680;26.324;2023-02-14T09:52:52;99668.81;;;15.62;30.41
9740;BME280;4909;42.680;26.324;2023-02-14T09:55:23;99676.31;;;15.17;30.71
9740;BME280;4909;42.680;26.324;2023-02-14T09:58:03;99671.75;;;14.61;31.42
9740;BME280;4909;42.680;26.324;2023-02-14T10:00:52;99666.41;;;13.99;32.44
9740;BME280;4909;42.680;26.324;2023-02-14T10:03:45;99649.19;;;13.21;33.87
9740;BME280;4909;42.680;26.324;2023-02-14T10:06:34;99654.19;;;12.58;35.09
9740;BME280;4909;42.680;26.324;2023-02-14T10:09:09;99660.31;;;12.36;36.25
9740;BME280;4909;42.680;26.324;2023-02-14T10:11:38;99646.81;;;11.91;36.38
9740;BME280;4909;42.680;26.324;2023-02-14T10:14:11;99643.13;;;11.95;36.59
9740;BME280;4909;42.680;26.324;2023-02-14T10:16:43;99647.97;;;12.08;37.03
9740;BME280;4909;42.680;26.324;2023-02-14T10:19:17;99645.31;;;11.82;37.16
9740;BME280;4909;42.680;26.324;2023-02-14T10:21:50;99641.56;;;11.89;37.92
9740;BME280;4909;42.680;26.324;2023-02-14T10:24:22;99618.91;;;12.02;36.64
9740;BME280;4909;42.680;26.324;2023-02-14T10:26:52;99642.84;;;12.29;37.08
9740;BME280;4909;42.680;26.324;2023-02-14T10:29:22;99638.31;;;12.55;36.62
9740;BME280;4909;42.680;26.324;2023-02-14T10:31:51;99634.78;;;12.30;36.77
9740;BME280;4909;42.680;26.324;2023-02-14T10:34:27;99626.38;;;11.91;37.74
9740;BME280;4909;42.680;26.324;2023-02-14T10:37:10;99628.75;;;12.00;38.15
9740;BME280;4909;42.680;26.324;2023-02-14T10:42:44;99621.66;;;11.74;38.41
9740;BME280;4909;42.680;26.324;2023-02-14T10:45:21;99619.66;;;11.53;38.17
9740;BME280;4909;42.680;26.324;2023-02-14T10:47:56;99624.34;;;11.73;38.29
9740;BME280;4909;42.680;26.324;2023-02-14T10:50:32;99619.50;;;11.86;38.06
9740;BME280;4909;42.680;26.324;2023-02-14T10:53:11;99634.84;;;11.50;38.96
9740;BME280;4909;42.680;26.324;2023-02-14T10:55:46;99617.66;;;11.88;38.34
9740;BME280;4909;42.680;26.324;2023-02-14T10:58:16;99624.47;;;11.68;38.03
9740;BME280;4909;42.680;26.324;2023-02-14T11:00:51;99604.44;;;11.32;38.79
9740;BME280;4909;42.680;26.324;2023-02-14T11:03:20;99616.69;;;11.36;39.14
9740;BME280;4909;42.680;26.324;2023-02-14T11:05:48;99611.31;;;11.38;38.96
9740;BME280;4909;42.680;26.324;2023-02-14T11:08:23;99604.91;;;11.17;39.00
9740;BME280;4909;42.680;26.324;2023-02-14T11:10:51;99608.03;;;11.02;39.66
9740;BME280;4909;42.680;26.324;2023-02-14T11:13:33;99613.03;;;10.83;40.00
9740;BME280;4909;42.680;26.324;2023-02-14T11:16:02;99618.34;;;10.54;40.51
9740;BME280;4909;42.680;26.324;2023-02-14T11:18:30;99608.88;;;10.74;40.42
9740;BME280;4909;42.680;26.324;2023-02-14T11:21:06;99605.94;;;10.54;40.61
9740;BME280;4909;42.680;26.324;2023-02-14T11:23:36;99576.38;;;10.94;39.21
9740;BME280;4909;42.680;26.324;2023-02-14T11:26:09;99608.34;;;10.91;39.43
9740;BME280;4909;42.680;26.324;2023-02-14T11:28:47;99605.34;;;10.74;40.29
9740;BME280;4909;42.680;26.324;2023-02-14T11:31:24;99587.56;;;10.14;40.82
9740;BME280;4909;42.680;26.324;2023-02-14T11:33:51;99574.97;;;10.24;41.53
9740;BME280;4909;42.680;26.324;2023-02-14T11:36:19;99578.50;;;10.23;41.87
9740;BME280;4909;42.680;26.324;2023-02-14T11:38:54;99573.41;;;10.15;42.36
9740;BME280;4909;42.680;26.324;2023-02-14T11:41:21;99571.41;;;10.25;41.44
9740;BME280;4909;42.680;26.324;2023-02-14T11:43:48;99581.16;;;10.23;41.79
9740;BME280;4909;42.680;26.324;2023-02-14T11:46:25;99579.47;;;10.51;40.83
9740;BME280;4909;42.680;26.324;2023-02-14T11:48:57;99572.88;;;10.35;41.53
9740;BME280;4909;42.680;26.324;2023-02-14T11:51:27;99581.94;;;9.94;42.62
9740;BME280;4909;42.680;26.324;2023-02-14T11:53:59;99567.88;;;9.92;42.73
9740;BME280;4909;42.680;26.324;2023-02-14T11:56:47;99571.16;;;10.00;42.41
9740;BME280;4909;42.680;26.324;2023-02-14T11:59:24;99578.47;;;10.24;41.27
9740;BME280;4909;42.680;26.324;2023-02-14T12:01:53;99575.22;;;9.81;42.47
9740;BME280;4909;42.680;26.324;2023-02-14T12:04:22;99568.00;;;9.87;42.51
9740;BME280;4909;42.680;26.324;2023-02-14T12:06:52;99552.03;;;9.89;42.96
9740;BME280;4909;42.680;26.324;2023-02-14T12:09:28;99567.00;;;9.91;43.19
9740;BME280;4909;42.680;26.324;2023-02-14T12:11:57;99572.03;;;10.00;42.50
9740;BME280;4909;42.680;26.324;2023-02-14T12:14:27;99578.38;;;9.63;43.03
9740;BME280;4909;42.680;26.324;2023-02-14T12:16:57;99575.09;;;9.51;43.04
9740;BME280;4909;42.680;26.324;2023-02-14T12:19:33;99583.53;;;9.33;43.62
9740;BME280;4909;42.680;26.324;2023-02-14T12:22:04;99588.53;;;9.08;44.46
9740;BME280;4909;42.680;26.324;2023-02-14T12:24:35;99564.84;;;8.62;46.00
9740;BME280;4909;42.680;26.324;2023-02-14T12:27:17;99586.50;;;8.81;46.75
9740;BME280;4909;42.680;26.324;2023-02-14T12:29:47;99580.28;;;8.84;46.81
9740;BME280;4909;42.680;26.324;2023-02-14T12:32:20;99601.47;;;8.82;46.98
9740;BME280;4909;42.680;26.324;2023-02-14T12:34:48;99585.13;;;8.63;46.60
9740;BME280;4909;42.680;26.324;2023-02-14T12:37:25;99579.25;;;8.89;46.46
9740;BME280;4909;42.680;26.324;2023-02-14T12:40:10;99591.63;;;8.89;46.74
9740;BME280;4909;42.680;26.324;2023-02-14T12:43:01;99588.78;;;8.96;46.77
9740;BME280;4909;42.680;26.324;2023-02-14T12:45:47;99588.53;;;9.08;47.10
9740;BME280;4909;42.680;26.324;2023-02-14T12:48:24;99598.56;;;9.31;45.88
9740;BME280;4909;42.680;26.324;2023-02-14T12:50:59;99596.00;;;9.28;44.88
9740;BME280;4909;42.680;26.324;2023-02-14T12:53:39;99605.28;;;9.46;44.90
9740;BME280;4909;42.680;26.324;2023-02-14T12:56:16;99591.19;;;9.08;44.42
9740;BME280;4909;42.680;26.324;2023-02-14T12:58:52;99592.94;;;8.69;45.76
9740;BME280;4909;42.680;26.324;2023-02-14T13:01:58;99593.84;;;8.67;46.54
9740;BME280;4909;42.680;26.324;2023-02-14T13:04:48;99594.31;;;8.87;46.48
9740;BME280;4909;42.680;26.324;2023-02-14T13:07:25;99585.75;;;8.76;46.90
9740;BME280;4909;42.680;26.324;2023-02-14T13:10:10;99584.91;;;8.72;47.63
9740;BME280;4909;42.680;26.324;2023-02-14T13:12:47;99592.63;;;8.83;47.21
9740;BME280;4909;42.680;26.324;2023-02-14T13:15:22;99577.94;;;9.08;47.36
9740;BME280;4909;42.680;26.324;2023-02-14T13:17:57;99576.19;;;9.07;47.15
9740;BME280;4909;42.680;26.324;2023-02-14T13:20:51;99577.31;;;8.96;47.44
9740;BME280;4909;42.680;26.324;2023-02-14T13:23:23;99584.25;;;9.01;47.41
9740;BME280;4909;42.680;26.324;2023-02-14T13:25:57;99576.41;;;8.98;47.38
9740;BME280;4909;42.680;26.324;2023-02-14T13:28:28;99582.34;;;9.09;47.34
9740;BME280;4909;42.680;26.324;2023-02-14T13:30:57;99576.78;;;8.82;48.58
9740;BME280;4909;42.680;26.324;2023-02-14T13:33:29;99540.66;;;8.81;48.35
9740;BME280;4909;42.680;26.324;2023-02-14T13:36:00;99553.59;;;8.91;47.95
9740;BME280;4909;42.680;26.324;2023-02-14T13:38:29;99562.38;;;8.95;48.11
9740;BME280;4909;42.680;26.324;2023-02-14T13:40:58;99523.63;;;8.91;48.20
9740;BME280;4909;42.680;26.324;2023-02-14T13:43:48;99546.19;;;9.07;48.17
9740;BME280;4909;42.680;26.324;2023-02-14T13:46:15;99541.78;;;8.69;48.98
9740;BME280;4909;42.680;26.324;2023-02-14T13:48:54;99541.34;;;8.87;48.99
9740;BME280;4909;42.680;26.324;2023-02-14T13:51:43;99541.09;;;8.61;49.92
9740;BME280;4909;42.680;26.324;2023-02-14T13:54:21;99534.28;;;8.49;50.42